sensor_id;sensor_type;location;lat;lon;timestamp;P1;durP1;ratioP1;P2;durP2;ratioP2
12768;SDS011;6448;48.916;8.990;2023-05-02T00:00:31;2.20;;;2.10;;
12768;SDS011;6448;48.916;8.990;2023-05-02T00:01:33;2.22;;;2.03;;
12768;SDS011;6448;48.916;8.990;2023-05-02T00:02:35;2.00;;;1.90;;
12768;SDS011;6448;48.916;8.990;2023-05-02T00:03:36;2.00;;;1.90;;
12768;SDS011;6448;48.916;8.990;2023-05-02T00:04:38;2.20;;;2.00;;
12768;SDS011;6448;48.916;8.990;2023-05-02T00:05:39;2.20;;;2.10;;
12768;SDS011;6448;48.916;8.990;2023-05-02T00:06:41;2.30;;;2.10;;
12768;SDS011;6448;48.916;8.990;2023-05-02T00:07:42;2.20;;;2.10;;
12768;SDS011;6448;48.916;8.990;2023-05-02T00:08:45;2.13;;;2.03;;
12768;SDS011;6448;48.916;8.990;2023-05-02T00:09:47;2.20;;;2.10;;
12768;SDS011;6448;48.916;8.990;2023-05-02T00:10:49;2.10;;;1.90;;
12768;SDS011;6448;48.916;8.990;2023-05-02T00:11:50;2.20;;;2.10;;
12768;SDS011;6448;48.916;8.990;2023-05-02T00:12:52;2.05;;;1.95;;
12768;SDS011;6448;48.916;8.990;2023-05-02T00:13:52;2.22;;;2.13;;
12768;SDS011;6448;48.916;8.990;2023-05-02T00:14:54;2.30;;;2.20;;
12768;SDS011;6448;48.916;8.990;2023-05-02T00:15:55;2.30;;;2.20;;
12768;SDS011;6448;48.916;8.990;2023-05-02T00:16:57;2.22;;;2.13;;
12768;SDS011;6448;48.916;8.990;2023-05-02T00:17:58;2.03;;;1.92;;
12768;SDS011;6448;48.916;8.990;2023-05-02T00:19:00;2.30;;;2.20;;
12768;SDS011;6448;48.916;8.990;2023-05-02T00:20:01;2.00;;;1.90;;
12768;SDS011;6448;48.916;8.990;2023-05-02T00:21:04;2.20;;;2.10;;
12768;SDS011;6448;48.916;8.990;2023-05-02T00:22:05;2.20;;;2.10;;
12768;SDS011;6448;48.916;8.990;2023-05-02T00:23:06;2.28;;;2.10;;
12768;SDS011;6448;48.916;8.990;2023-05-02T00:24:09;2.20;;;2.10;;
12768;SDS011;6448;48.916;8.990;2023-05-02T00:25:10;2.30;;;2.10;;
12768;SDS011;6448;48.916;8.990;2023-05-02T00:26:15;2.10;;;2.00;;
12768;SDS011;6448;48.916;8.990;2023-05-02T00:27:16;2.10;;;2.00;;
12768;SDS011;6448;48.916;8.990;2023-05-02T00:28:18;2.00;;;1.90;;
12768;SDS011;6448;48.916;8.990;2023-05-02T00:29:20;1.83;;;1.73;;
12768;SDS011;6448;48.916;8.990;2023-05-02T00:30:20;2.00;;;1.90;;
12768;SDS011;6448;48.916;8.990;2023-05-02T00:31:22;2.00;;;1.90;;
12768;SDS011;6448;48.916;8.990;2023-05-02T00:32:23;2.10;;;2.00;;
12768;SDS011;6448;48.916;8.990;2023-05-02T00:33:25;2.08;;;1.98;;
12768;SDS011;6448;48.916;8.990;2023-05-02T00:34:28;2.13;;;2.03;;
12768;SDS011;6448;48.916;8.990;2023-05-02T00:35:31;2.05;;;1.95;;
12768;SDS011;6448;48.916;8.990;2023-05-02T00:36:32;2.38;;;2.17;;
12768;SDS011;6448;48.916;8.990;2023-05-02T00:37:34;2.35;;;2.25;;
12768;SDS011;6448;48.916;8.990;2023-05-02T00:38:35;2.28;;;2.15;;
12768;SDS011;6448;48.916;8.990;2023-05-02T00:39:38;2.25;;;2.15;;
12768;SDS011;6448;48.916;8.990;2023-05-02T00:40:42;2.28;;;2.08;;
12768;SDS011;6448;48.916;8.990;2023-05-02T00:41:45;2.10;;;2.00;;
12768;SDS011;6448;48.916;8.990;2023-05-02T00:42:45;2.20;;;2.10;;
12768;SDS011;6448;48.916;8.990;2023-05-02T00:43:47;2.40;;;2.20;;
12768;SDS011;6448;48.916;8.990;2023-05-02T00:44:48;2.30;;;2.20;;
12768;SDS011;6448;48.916;8.990;2023-05-02T00:45:50;2.10;;;2.00;;
12768;SDS011;6448;48.916;8.990;2023-05-02T00:46:51;2.40;;;2.20;;
12768;SDS011;6448;48.916;8.990;2023-05-02T00:47:53;2.28;;;2.10;;
12768;SDS011;6448;48.916;8.990;2023-05-02T00:48:54;2.20;;;2.10;;
12768;SDS011;6448;48.916;8.990;2023-05-02T00:49:56;2.10;;;2.00;;
12768;SDS011;6448;48.916;8.990;2023-05-02T00:50:59;2.23;;;2.13;;
12768;SDS011;6448;48.916;8.990;2023-05-02T00:52:02;1.90;;;1.80;;
12768;SDS011;6448;48.916;8.990;2023-05-02T00:53:04;2.10;;;2.00;;
12768;SDS011;6448;48.916;8.990;2023-05-02T00:54:05;2.20;;;2.10;;
12768;SDS011;6448;48.916;8.990;2023-05-02T00:55:09;2.10;;;2.00;;
12768;SDS011;6448;48.916;8.990;2023-05-02T00:56:10;2.28;;;2.10;;
12768;SDS011;6448;48.916;8.990;2023-05-02T00:57:12;2.10;;;2.00;;
12768;SDS011;6448;48.916;8.990;2023-05-02T00:58:13;2.00;;;1.90;;
12768;SDS011;6448;48.916;8.990;2023-05-02T00:59:16;2.03;;;1.93;;
12768;SDS011;6448;48.916;8.990;2023-05-02T01:00:17;2.10;;;2.00;;
12768;SDS011;6448;48.916;8.990;2023-05-02T01:01:24;2.20;;;2.10;;
12768;SDS011;6448;48.916;8.990;2023-05-02T01:02:34;2.30;;;2.20;;
12768;SDS011;6448;48.916;8.990;2023-05-02T01:03:45;2.10;;;2.00;;
12768;SDS011;6448;48.916;8.990;2023-05-02T01:04:59;2.42;;;2.20;;
12768;SDS011;6448;48.916;8.990;2023-05-02T01:06:10;2.38;;;2.20;;
12768;SDS011;6448;48.916;8.990;2023-05-02T01:07:46;2.50;;;2.22;;
12768;SDS011;6448;48.916;8.990;2023-05-02T01:08:59;2.05;;;1.90;;
12768;SDS011;6448;48.916;8.990;2023-05-02T01:10:20;2.22;;;2.13;;
12768;SDS011;6448;48.916;8.990;2023-05-02T01:11:28;2.20;;;2.10;;
12768;SDS011;6448;48.916;8.990;2023-05-02T01:12:40;2.10;;;2.00;;
12768;SDS011;6448;48.916;8.990;2023-05-02T01:13:42;2.35;;;2.15;;
12768;SDS011;6448;48.916;8.990;2023-05-02T01:14:46;2.08;;;1.98;;
12768;SDS011;6448;48.916;8.990;2023-05-02T01:15:50;2.20;;;2.10;;
12768;SDS011;6448;48.916;8.990;2023-05-02T01:16:55;2.10;;;2.00;;
12768;SDS011;6448;48.916;8.990;2023-05-02T01:17:58;2.00;;;1.90;;
12768;SDS011;6448;48.916;8.990;2023-05-02T01:19:02;2.17;;;1.98;;
12768;SDS011;6448;48.916;8.990;2023-05-02T01:20:10;2.15;;;2.03;;
12768;SDS011;6448;48.916;8.990;2023-05-02T01:21:16;2.00;;;1.90;;
12768;SDS011;6448;48.916;8.990;2023-05-02T01:22:16;2.10;;;2.00;;
12768;SDS011;6448;48.916;8.990;2023-05-02T01:23:21;2.10;;;2.00;;
12768;SDS011;6448;48.916;8.990;2023-05-02T01:24:29;2.15;;;2.00;;
12768;SDS011;6448;48.916;8.990;2023-05-02T01:25:48;2.25;;;2.05;;
12768;SDS011;6448;48.916;8.990;2023-05-02T01:27:06;2.10;;;2.00;;
12768;SDS011;6448;48.916;8.990;2023-05-02T01:28:17;2.10;;;2.00;;
12768;SDS011;6448;48.916;8.990;2023-05-02T01:29:30;2.20;;;2.00;;
12768;SDS011;6448;48.916;8.990;2023-05-02T01:30:32;2.00;;;1.90;;
12768;SDS011;6448;48.916;8.990;2023-05-02T01:31:39;2.20;;;2.10;;
12768;SDS011;6448;48.916;8.990;2023-05-02T01:32:42;2.13;;;2.03;;
12768;SDS011;6448;48.916;8.990;2023-05-02T01:33:46;2.10;;;2.00;;
12768;SDS011;6448;48.916;8.990;2023-05-02T01:34:48;2.10;;;2.00;;
12768;SDS011;6448;48.916;8.990;2023-05-02T01:35:52;2.30;;;2.15;;
12768;SDS011;6448;48.916;8.990;2023-05-02T01:36:54;2.10;;;2.00;;
12768;SDS011;6448;48.916;8.990;2023-05-02T01:37:59;2.03;;;1.93;;
12768;SDS011;6448;48.916;8.990;2023-05-02T01:39:03;2.20;;;2.10;;
12768;SDS011;6448;48.916;8.990;2023-05-02T01:40:07;2.00;;;1.90;;
12768;SDS011;6448;48.916;8.990;2023-05-02T01:41:10;2.10;;;2.00;;
12768;SDS011;6448;48.916;8.990;2023-05-02T01:42:13;1.90;;;1.80;;
12768;SDS011;6448;48.916;8.990;2023-05-02T01:43:15;2.20;;;2.10;;
12768;SDS011;6448;48.916;8.990;2023-05-02T01:44:19;2.47;;;2.28;;
12768;SDS011;6448;48.916;8.990;2023-05-02T01:45:22;2.10;;;2.00;;
12768;SDS011;6448;48.916;8.990;2023-05-02T01:46:25;2.15;;;2.05;;
12768;SDS011;6448;48.916;8.990;2023-05-02T01:47:30;2.28;;;2.10;;
12768;SDS011;6448;48.916;8.990;2023-05-02T01:48:34;2.10;;;2.00;;
12768;SDS011;6448;48.916;8.990;2023-05-02T01:49:35;2.20;;;2.10;;
12768;SDS011;6448;48.916;8.990;2023-05-02T01:50:38;2.10;;;2.00;;
12768;SDS011;6448;48.916;8.990;2023-05-02T01:51:43;2.28;;;2.10;;
12768;SDS011;6448;48.916;8.990;2023-05-02T01:52:48;2.40;;;1.98;;
12768;SDS011;6448;48.916;8.990;2023-05-02T01:53:52;2.10;;;2.00;;
12768;SDS011;6448;48.916;8.990;2023-05-02T01:54:54;2.10;;;2.00;;
12768;SDS011;6448;48.916;8.990;2023-05-02T01:55:58;2.20;;;2.10;;
12768;SDS011;6448;48.916;8.990;2023-05-02T01:57:00;2.15;;;2.05;;
12768;SDS011;6448;48.916;8.990;2023-05-02T01:58:04;2.20;;;2.00;;
12768;SDS011;6448;48.916;8.990;2023-05-02T01:59:07;2.20;;;2.10;;
12768;SDS011;6448;48.916;8.990;2023-05-02T02:00:11;2.20;;;2.10;;
12768;SDS011;6448;48.916;8.990;2023-05-02T02:01:19;2.15;;;2.05;;
12768;SDS011;6448;48.916;8.990;2023-05-02T02:02:21;2.00;;;1.90;;
12768;SDS011;6448;48.916;8.990;2023-05-02T02:03:26;2.28;;;2.10;;
12768;SDS011;6448;48.916;8.990;2023-05-02T02:04:28;2.28;;;2.10;;
12768;SDS011;6448;48.916;8.990;2023-05-02T02:05:32;2.17;;;2.08;;
12768;SDS011;6448;48.916;8.990;2023-05-02T02:06:37;2.10;;;2.00;;
12768;SDS011;6448;48.916;8.990;2023-05-02T02:07:39;2.20;;;2.10;;
12768;SDS011;6448;48.916;8.990;2023-05-02T02:08:41;2.35;;;2.20;;
12768;SDS011;6448;48.916;8.990;2023-05-02T02:09:44;2.25;;;2.10;;
12768;SDS011;6448;48.916;8.990;2023-05-02T02:10:45;2.25;;;2.15;;
12768;SDS011;6448;48.916;8.990;2023-05-02T02:11:56;2.40;;;2.20;;
12768;SDS011;6448;48.916;8.990;2023-05-02T02:13:05;2.10;;;2.00;;
12768;SDS011;6448;48.916;8.990;2023-05-02T02:14:16;2.25;;;2.05;;
12768;SDS011;6448;48.916;8.990;2023-05-02T02:15:20;2.30;;;2.20;;
12768;SDS011;6448;48.916;8.990;2023-05-02T02:16:29;2.35;;;2.20;;
12768;SDS011;6448;48.916;8.990;2023-05-02T02:17:38;2.20;;;2.10;;
12768;SDS011;6448;48.916;8.990;2023-05-02T02:18:43;2.20;;;2.10;;
12768;SDS011;6448;48.916;8.990;2023-05-02T02:19:44;2.63;;;2.42;;
12768;SDS011;6448;48.916;8.990;2023-05-02T02:20:46;2.40;;;2.20;;
12768;SDS011;6448;48.916;8.990;2023-05-02T02:21:48;2.10;;;2.00;;
12768;SDS011;6448;48.916;8.990;2023-05-02T02:22:52;2.20;;;2.10;;
12768;SDS011;6448;48.916;8.990;2023-05-02T02:23:54;2.30;;;2.20;;
12768;SDS011;6448;48.916;8.990;2023-05-02T02:25:00;2.20;;;2.10;;
12768;SDS011;6448;48.916;8.990;2023-05-02T02:26:01;2.47;;;2.28;;
12768;SDS011;6448;48.916;8.990;2023-05-02T02:27:05;2.10;;;2.00;;
12768;SDS011;6448;48.916;8.990;2023-05-02T02:28:07;2.30;;;2.20;;
12768;SDS011;6448;48.916;8.990;2023-05-02T02:29:09;2.50;;;2.30;;
12768;SDS011;6448;48.916;8.990;2023-05-02T02:30:10;2.50;;;2.30;;
12768;SDS011;6448;48.916;8.990;2023-05-02T02:31:12;2.40;;;2.20;;
12768;SDS011;6448;48.916;8.990;2023-05-02T02:32:14;2.20;;;2.10;;
12768;SDS011;6448;48.916;8.990;2023-05-02T02:33:16;2.30;;;2.20;;
12768;SDS011;6448;48.916;8.990;2023-05-02T02:34:18;2.10;;;2.00;;
12768;SDS011;6448;48.916;8.990;2023-05-02T02:35:21;2.40;;;2.20;;
12768;SDS011;6448;48.916;8.990;2023-05-02T02:36:23;2.25;;;2.15;;
12768;SDS011;6448;48.916;8.990;2023-05-02T02:37:29;2.35;;;2.15;;
12768;SDS011;6448;48.916;8.990;2023-05-02T02:38:35;2.10;;;2.00;;
12768;SDS011;6448;48.916;8.990;2023-05-02T02:39:43;2.43;;;2.30;;
12768;SDS011;6448;48.916;8.990;2023-05-02T02:40:54;2.50;;;2.40;;
12768;SDS011;6448;48.916;8.990;2023-05-02T02:42:04;2.30;;;2.20;;
12768;SDS011;6448;48.916;8.990;2023-05-02T02:43:11;2.60;;;2.40;;
12768;SDS011;6448;48.916;8.990;2023-05-02T02:44:25;2.60;;;2.40;;
12768;SDS011;6448;48.916;8.990;2023-05-02T02:45:33;2.30;;;2.20;;
12768;SDS011;6448;48.916;8.990;2023-05-02T02:46:42;2.70;;;2.50;;
12768;SDS011;6448;48.916;8.990;2023-05-02T02:47:50;2.30;;;2.10;;
12768;SDS011;6448;48.916;8.990;2023-05-02T02:49:06;2.50;;;2.30;;
12768;SDS011;6448;48.916;8.990;2023-05-02T02:50:15;2.50;;;2.30;;
12768;SDS011;6448;48.916;8.990;2023-05-02T02:51:24;2.70;;;2.50;;
12768;SDS011;6448;48.916;8.990;2023-05-02T02:52:32;2.60;;;2.50;;
12768;SDS011;6448;48.916;8.990;2023-05-02T02:53:44;2.83;;;2.63;;
12768;SDS011;6448;48.916;8.990;2023-05-02T02:54:51;2.55;;;2.40;;
12768;SDS011;6448;48.916;8.990;2023-05-02T02:55:59;2.70;;;2.50;;
12768;SDS011;6448;48.916;8.990;2023-05-02T02:57:05;2.67;;;2.47;;
12768;SDS011;6448;48.916;8.990;2023-05-02T02:58:19;2.67;;;2.47;;
12768;SDS011;6448;48.916;8.990;2023-05-02T02:59:31;2.55;;;2.35;;
12768;SDS011;6448;48.916;8.990;2023-05-02T03:00:33;2.60;;;2.40;;
12768;SDS011;6448;48.916;8.990;2023-05-02T03:01:36;2.70;;;2.50;;
12768;SDS011;6448;48.916;8.990;2023-05-02T03:02:41;2.97;;;2.78;;
12768;SDS011;6448;48.916;8.990;2023-05-02T03:03:45;2.60;;;2.40;;
12768;SDS011;6448;48.916;8.990;2023-05-02T03:04:47;2.80;;;2.60;;
12768;SDS011;6448;48.916;8.990;2023-05-02T03:05:51;2.95;;;2.75;;
12768;SDS011;6448;48.916;8.990;2023-05-02T03:06:52;2.80;;;2.60;;
12768;SDS011;6448;48.916;8.990;2023-05-02T03:07:54;2.80;;;2.60;;
12768;SDS011;6448;48.916;8.990;2023-05-02T03:08:58;2.80;;;2.60;;
12768;SDS011;6448;48.916;8.990;2023-05-02T03:10:03;2.72;;;2.53;;
12768;SDS011;6448;48.916;8.990;2023-05-02T03:11:06;2.72;;;2.53;;
12768;SDS011;6448;48.916;8.990;2023-05-02T03:12:08;2.70;;;2.50;;
12768;SDS011;6448;48.916;8.990;2023-05-02T03:13:11;2.58;;;2.40;;
12768;SDS011;6448;48.916;8.990;2023-05-02T03:14:14;2.60;;;2.40;;
12768;SDS011;6448;48.916;8.990;2023-05-02T03:15:21;2.80;;;2.60;;
12768;SDS011;6448;48.916;8.990;2023-05-02T03:16:35;2.40;;;2.30;;
12768;SDS011;6448;48.916;8.990;2023-05-02T03:17:39;2.60;;;2.40;;
12768;SDS011;6448;48.916;8.990;2023-05-02T03:18:40;2.60;;;2.40;;
12768;SDS011;6448;48.916;8.990;2023-05-02T03:19:43;2.50;;;2.40;;
12768;SDS011;6448;48.916;8.990;2023-05-02T03:20:46;2.70;;;2.50;;
12768;SDS011;6448;48.916;8.990;2023-05-02T03:21:47;2.60;;;2.40;;
12768;SDS011;6448;48.916;8.990;2023-05-02T03:22:53;2.78;;;2.58;;
12768;SDS011;6448;48.916;8.990;2023-05-02T03:23:54;2.90;;;2.70;;
12768;SDS011;6448;48.916;8.990;2023-05-02T03:24:56;2.80;;;2.60;;
12768;SDS011;6448;48.916;8.990;2023-05-02T03:25:57;3.00;;;2.70;;
12768;SDS011;6448;48.916;8.990;2023-05-02T03:26:59;2.70;;;2.50;;
12768;SDS011;6448;48.916;8.990;2023-05-02T03:28:06;2.75;;;2.55;;
12768;SDS011;6448;48.916;8.990;2023-05-02T03:29:09;2.80;;;2.60;;
12768;SDS011;6448;48.916;8.990;2023-05-02T03:30:13;2.90;;;2.50;;
12768;SDS011;6448;48.916;8.990;2023-05-02T03:31:15;2.70;;;2.50;;
12768;SDS011;6448;48.916;8.990;2023-05-02T03:32:16;2.78;;;2.58;;
12768;SDS011;6448;48.916;8.990;2023-05-02T03:33:18;2.83;;;2.63;;
12768;SDS011;6448;48.916;8.990;2023-05-02T03:34:20;2.80;;;2.60;;
12768;SDS011;6448;48.916;8.990;2023-05-02T03:35:24;2.50;;;2.30;;
12768;SDS011;6448;48.916;8.990;2023-05-02T03:36:26;2.70;;;2.50;;
12768;SDS011;6448;48.916;8.990;2023-05-02T03:37:28;2.95;;;2.75;;
12768;SDS011;6448;48.916;8.990;2023-05-02T03:38:32;2.80;;;2.60;;
12768;SDS011;6448;48.916;8.990;2023-05-02T03:39:38;2.80;;;2.60;;
12768;SDS011;6448;48.916;8.990;2023-05-02T03:40:40;2.50;;;2.40;;
12768;SDS011;6448;48.916;8.990;2023-05-02T03:41:44;2.58;;;2.38;;
12768;SDS011;6448;48.916;8.990;2023-05-02T03:42:50;2.70;;;2.50;;
12768;SDS011;6448;48.916;8.990;2023-05-02T03:43:57;2.90;;;2.70;;
12768;SDS011;6448;48.916;8.990;2023-05-02T03:45:01;2.65;;;2.45;;
12768;SDS011;6448;48.916;8.990;2023-05-02T03:46:03;2.50;;;2.30;;
12768;SDS011;6448;48.916;8.990;2023-05-02T03:47:09;2.75;;;2.55;;
12768;SDS011;6448;48.916;8.990;2023-05-02T03:48:15;2.78;;;2.58;;
12768;SDS011;6448;48.916;8.990;2023-05-02T03:49:16;2.60;;;2.40;;
12768;SDS011;6448;48.916;8.990;2023-05-02T03:50:20;2.63;;;2.42;;
12768;SDS011;6448;48.916;8.990;2023-05-02T03:51:25;2.43;;;2.33;;
12768;SDS011;6448;48.916;8.990;2023-05-02T03:52:29;2.65;;;2.47;;
12768;SDS011;6448;48.916;8.990;2023-05-02T03:53:30;2.60;;;2.40;;
12768;SDS011;6448;48.916;8.990;2023-05-02T03:54:32;2.90;;;2.70;;
12768;SDS011;6448;48.916;8.990;2023-05-02T03:55:37;2.63;;;2.42;;
12768;SDS011;6448;48.916;8.990;2023-05-02T03:56:42;2.67;;;2.47;;
12768;SDS011;6448;48.916;8.990;2023-05-02T03:57:53;2.70;;;2.50;;
12768;SDS011;6448;48.916;8.990;2023-05-02T03:58:54;2.75;;;2.55;;
12768;SDS011;6448;48.916;8.990;2023-05-02T03:59:59;2.67;;;2.47;;
12768;SDS011;6448;48.916;8.990;2023-05-02T04:01:01;2.88;;;2.67;;
12768;SDS011;6448;48.916;8.990;2023-05-02T04:02:03;2.65;;;2.55;;
12768;SDS011;6448;48.916;8.990;2023-05-02T04:03:14;2.63;;;2.42;;
12768;SDS011;6448;48.916;8.990;2023-05-02T04:04:18;2.78;;;2.58;;
12768;SDS011;6448;48.916;8.990;2023-05-02T04:05:23;2.70;;;2.40;;
12768;SDS011;6448;48.916;8.990;2023-05-02T04:06:26;2.67;;;2.47;;
12768;SDS011;6448;48.916;8.990;2023-05-02T04:07:31;2.75;;;2.55;;
12768;SDS011;6448;48.916;8.990;2023-05-02T04:08:36;2.80;;;2.60;;
12768;SDS011;6448;48.916;8.990;2023-05-02T04:09:37;2.80;;;2.60;;
12768;SDS011;6448;48.916;8.990;2023-05-02T04:10:42;2.60;;;2.45;;
12768;SDS011;6448;48.916;8.990;2023-05-02T04:11:44;2.78;;;2.58;;
12768;SDS011;6448;48.916;8.990;2023-05-02T04:12:47;2.75;;;2.55;;
12768;SDS011;6448;48.916;8.990;2023-05-02T04:13:49;3.00;;;2.80;;
12768;SDS011;6448;48.916;8.990;2023-05-02T04:14:52;2.70;;;2.50;;
12768;SDS011;6448;48.916;8.990;2023-05-02T04:15:58;2.85;;;2.65;;
12768;SDS011;6448;48.916;8.990;2023-05-02T04:17:03;3.10;;;2.90;;
12768;SDS011;6448;48.916;8.990;2023-05-02T04:18:18;2.80;;;2.60;;
12768;SDS011;6448;48.916;8.990;2023-05-02T04:19:20;2.77;;;2.57;;
12768;SDS011;6448;48.916;8.990;2023-05-02T04:20:48;2.58;;;2.40;;
12768;SDS011;6448;48.916;8.990;2023-05-02T04:21:52;2.60;;;2.40;;
12768;SDS011;6448;48.916;8.990;2023-05-02T04:22:54;2.85;;;2.65;;
12768;SDS011;6448;48.916;8.990;2023-05-02T04:23:55;2.72;;;2.53;;
12768;SDS011;6448;48.916;8.990;2023-05-02T04:24:57;3.05;;;2.75;;
12768;SDS011;6448;48.916;8.990;2023-05-02T04:25:59;2.70;;;2.50;;
12768;SDS011;6448;48.916;8.990;2023-05-02T04:27:10;2.70;;;2.50;;
12768;SDS011;6448;48.916;8.990;2023-05-02T04:28:11;2.67;;;2.47;;
12768;SDS011;6448;48.916;8.990;2023-05-02T04:29:13;2.78;;;2.58;;
12768;SDS011;6448;48.916;8.990;2023-05-02T04:30:15;2.67;;;2.47;;
12768;SDS011;6448;48.916;8.990;2023-05-02T04:31:22;2.60;;;2.40;;
12768;SDS011;6448;48.916;8.990;2023-05-02T04:32:25;2.60;;;2.40;;
12768;SDS011;6448;48.916;8.990;2023-05-02T04:33:27;2.70;;;2.50;;
12768;SDS011;6448;48.916;8.990;2023-05-02T04:34:30;3.00;;;2.80;;
12768;SDS011;6448;48.916;8.990;2023-05-02T04:35:30;2.95;;;2.75;;
12768;SDS011;6448;48.916;8.990;2023-05-02T04:36:32;2.70;;;2.50;;
12768;SDS011;6448;48.916;8.990;2023-05-02T04:37:35;2.90;;;2.70;;
12768;SDS011;6448;48.916;8.990;2023-05-02T04:38:37;2.80;;;2.60;;
12768;SDS011;6448;48.916;8.990;2023-05-02T04:39:38;2.88;;;2.67;;
12768;SDS011;6448;48.916;8.990;2023-05-02T04:40:45;2.85;;;2.65;;
12768;SDS011;6448;48.916;8.990;2023-05-02T04:41:46;2.72;;;2.53;;
12768;SDS011;6448;48.916;8.990;2023-05-02T04:42:49;2.85;;;2.65;;
12768;SDS011;6448;48.916;8.990;2023-05-02T04:43:54;2.60;;;2.40;;
12768;SDS011;6448;48.916;8.990;2023-05-02T04:44:55;2.65;;;2.47;;
12768;SDS011;6448;48.916;8.990;2023-05-02T04:45:57;2.63;;;2.42;;
12768;SDS011;6448;48.916;8.990;2023-05-02T04:47:02;2.70;;;2.50;;
12768;SDS011;6448;48.916;8.990;2023-05-02T04:48:04;3.00;;;2.80;;
12768;SDS011;6448;48.916;8.990;2023-05-02T04:49:05;2.95;;;2.75;;
12768;SDS011;6448;48.916;8.990;2023-05-02T04:50:09;2.92;;;2.72;;
12768;SDS011;6448;48.916;8.990;2023-05-02T04:51:10;2.90;;;2.70;;
12768;SDS011;6448;48.916;8.990;2023-05-02T04:52:12;3.00;;;2.80;;
12768;SDS011;6448;48.916;8.990;2023-05-02T04:53:15;2.88;;;2.67;;
12768;SDS011;6448;48.916;8.990;2023-05-02T04:54:17;3.00;;;2.80;;
12768;SDS011;6448;48.916;8.990;2023-05-02T04:55:18;2.70;;;2.53;;
12768;SDS011;6448;48.916;8.990;2023-05-02T04:56:20;3.00;;;2.80;;
12768;SDS011;6448;48.916;8.990;2023-05-02T04:57:22;2.90;;;2.70;;
12768;SDS011;6448;48.916;8.990;2023-05-02T04:58:27;3.03;;;2.83;;
12768;SDS011;6448;48.916;8.990;2023-05-02T04:59:35;3.13;;;2.83;;
12768;SDS011;6448;48.916;8.990;2023-05-02T05:00:37;2.90;;;2.70;;
12768;SDS011;6448;48.916;8.990;2023-05-02T05:01:39;3.00;;;2.80;;
12768;SDS011;6448;48.916;8.990;2023-05-02T05:02:42;2.83;;;2.63;;
12768;SDS011;6448;48.916;8.990;2023-05-02T05:03:45;3.00;;;2.80;;
12768;SDS011;6448;48.916;8.990;2023-05-02T05:04:49;3.10;;;2.80;;
12768;SDS011;6448;48.916;8.990;2023-05-02T05:05:51;2.75;;;2.55;;
12768;SDS011;6448;48.916;8.990;2023-05-02T05:06:55;2.80;;;2.60;;
12768;SDS011;6448;48.916;8.990;2023-05-02T05:07:57;2.90;;;2.70;;
12768;SDS011;6448;48.916;8.990;2023-05-02T05:09:04;2.90;;;2.70;;
12768;SDS011;6448;48.916;8.990;2023-05-02T05:10:08;2.80;;;2.60;;
12768;SDS011;6448;48.916;8.990;2023-05-02T05:11:16;3.05;;;2.85;;
12768;SDS011;6448;48.916;8.990;2023-05-02T05:12:17;3.03;;;2.72;;
12768;SDS011;6448;48.916;8.990;2023-05-02T05:13:19;2.88;;;2.67;;
12768;SDS011;6448;48.916;8.990;2023-05-02T05:14:22;3.00;;;2.80;;
12768;SDS011;6448;48.916;8.990;2023-05-02T05:15:26;2.95;;;2.75;;
12768;SDS011;6448;48.916;8.990;2023-05-02T05:16:31;3.08;;;2.88;;
12768;SDS011;6448;48.916;8.990;2023-05-02T05:17:33;3.00;;;2.80;;
12768;SDS011;6448;48.916;8.990;2023-05-02T05:18:36;3.17;;;2.95;;
12768;SDS011;6448;48.916;8.990;2023-05-02T05:19:42;2.90;;;2.70;;
12768;SDS011;6448;48.916;8.990;2023-05-02T05:20:43;2.92;;;2.72;;
12768;SDS011;6448;48.916;8.990;2023-05-02T05:21:45;2.90;;;2.70;;
12768;SDS011;6448;48.916;8.990;2023-05-02T05:22:50;2.90;;;2.70;;
12768;SDS011;6448;48.916;8.990;2023-05-02T05:23:53;3.00;;;2.80;;
12768;SDS011;6448;48.916;8.990;2023-05-02T05:25:00;2.83;;;2.63;;
12768;SDS011;6448;48.916;8.990;2023-05-02T05:26:07;2.65;;;2.47;;
12768;SDS011;6448;48.916;8.990;2023-05-02T05:27:11;3.22;;;2.97;;
12768;SDS011;6448;48.916;8.990;2023-05-02T05:28:12;3.08;;;2.88;;
12768;SDS011;6448;48.916;8.990;2023-05-02T05:29:14;3.05;;;2.85;;
12768;SDS011;6448;48.916;8.990;2023-05-02T05:30:16;3.00;;;2.80;;
12768;SDS011;6448;48.916;8.990;2023-05-02T05:31:26;3.08;;;2.88;;
12768;SDS011;6448;48.916;8.990;2023-05-02T05:32:31;3.17;;;2.90;;
12768;SDS011;6448;48.916;8.990;2023-05-02T05:33:33;3.20;;;3.00;;
12768;SDS011;6448;48.916;8.990;2023-05-02T05:34:34;3.30;;;3.00;;
12768;SDS011;6448;48.916;8.990;2023-05-02T05:35:36;3.40;;;3.20;;
12768;SDS011;6448;48.916;8.990;2023-05-02T05:36:38;3.60;;;3.30;;
12768;SDS011;6448;48.916;8.990;2023-05-02T05:37:39;3.30;;;3.10;;
12768;SDS011;6448;48.916;8.990;2023-05-02T05:38:45;3.10;;;2.90;;
12768;SDS011;6448;48.916;8.990;2023-05-02T05:39:46;3.30;;;3.10;;
12768;SDS011;6448;48.916;8.990;2023-05-02T05:40:49;3.43;;;3.23;;
12768;SDS011;6448;48.916;8.990;2023-05-02T05:41:52;3.40;;;3.20;;
12768;SDS011;6448;48.916;8.990;2023-05-02T05:42:53;3.40;;;3.20;;
12768;SDS011;6448;48.916;8.990;2023-05-02T05:44:00;3.38;;;3.17;;
12768;SDS011;6448;48.916;8.990;2023-05-02T05:45:03;3.20;;;3.00;;
12768;SDS011;6448;48.916;8.990;2023-05-02T05:46:05;3.28;;;3.08;;
12768;SDS011;6448;48.916;8.990;2023-05-02T05:47:09;3.33;;;3.13;;
12768;SDS011;6448;48.916;8.990;2023-05-02T05:48:10;3.50;;;3.30;;
12768;SDS011;6448;48.916;8.990;2023-05-02T05:49:16;3.30;;;3.10;;
12768;SDS011;6448;48.916;8.990;2023-05-02T05:50:18;3.50;;;3.25;;
12768;SDS011;6448;48.916;8.990;2023-05-02T05:51:20;3.53;;;3.33;;
12768;SDS011;6448;48.916;8.990;2023-05-02T05:52:22;3.33;;;3.13;;
12768;SDS011;6448;48.916;8.990;2023-05-02T05:53:26;3.38;;;3.17;;
12768;SDS011;6448;48.916;8.990;2023-05-02T05:54:27;3.42;;;3.22;;
12768;SDS011;6448;48.916;8.990;2023-05-02T05:55:28;3.60;;;3.30;;
12768;SDS011;6448;48.916;8.990;2023-05-02T05:56:31;3.70;;;3.40;;
12768;SDS011;6448;48.916;8.990;2023-05-02T05:57:40;3.40;;;3.20;;
12768;SDS011;6448;48.916;8.990;2023-05-02T05:58:42;3.58;;;3.38;;
12768;SDS011;6448;48.916;8.990;2023-05-02T05:59:46;3.70;;;3.47;;
12768;SDS011;6448;48.916;8.990;2023-05-02T06:00:48;4.03;;;3.72;;
12768;SDS011;6448;48.916;8.990;2023-05-02T06:01:50;3.75;;;3.50;;
12768;SDS011;6448;48.916;8.990;2023-05-02T06:02:54;4.00;;;3.70;;
12768;SDS011;6448;48.916;8.990;2023-05-02T06:04:02;4.10;;;3.80;;
12768;SDS011;6448;48.916;8.990;2023-05-02T06:05:04;3.97;;;3.67;;
12768;SDS011;6448;48.916;8.990;2023-05-02T06:06:06;4.22;;;3.92;;
12768;SDS011;6448;48.916;8.990;2023-05-02T06:07:07;3.97;;;3.67;;
12768;SDS011;6448;48.916;8.990;2023-05-02T06:08:08;3.90;;;3.60;;
12768;SDS011;6448;48.916;8.990;2023-05-02T06:09:09;3.60;;;3.40;;
12768;SDS011;6448;48.916;8.990;2023-05-02T06:10:11;4.18;;;3.88;;
12768;SDS011;6448;48.916;8.990;2023-05-02T06:11:14;3.90;;;3.60;;
12768;SDS011;6448;48.916;8.990;2023-05-02T06:12:18;3.90;;;3.60;;
12768;SDS011;6448;48.916;8.990;2023-05-02T06:13:19;4.38;;;3.97;;
12768;SDS011;6448;48.916;8.990;2023-05-02T06:14:22;4.13;;;3.83;;
12768;SDS011;6448;48.916;8.990;2023-05-02T06:15:24;4.20;;;3.90;;
12768;SDS011;6448;48.916;8.990;2023-05-02T06:16:26;4.30;;;4.00;;
12768;SDS011;6448;48.916;8.990;2023-05-02T06:17:27;4.32;;;4.03;;
12768;SDS011;6448;48.916;8.990;2023-05-02T06:18:28;4.30;;;4.00;;
12768;SDS011;6448;48.916;8.990;2023-05-02T06:19:30;4.82;;;4.47;;
12768;SDS011;6448;48.916;8.990;2023-05-02T06:20:31;4.70;;;4.40;;
12768;SDS011;6448;48.916;8.990;2023-05-02T06:21:47;4.30;;;3.90;;
12768;SDS011;6448;48.916;8.990;2023-05-02T06:22:48;4.43;;;4.13;;
12768;SDS011;6448;48.916;8.990;2023-05-02T06:25:32;5.00;;;4.60;;
12768;SDS011;6448;48.916;8.990;2023-05-02T06:29:38;5.70;;;5.25;;
12768;SDS011;6448;48.916;8.990;2023-05-02T06:31:11;5.20;;;4.75;;
12768;SDS011;6448;48.916;8.990;2023-05-02T06:32:42;5.45;;;5.05;;
12768;SDS011;6448;48.916;8.990;2023-05-02T06:34:00;5.65;;;5.25;;
12768;SDS011;6448;48.916;8.990;2023-05-02T06:35:11;5.90;;;5.50;;
12768;SDS011;6448;48.916;8.990;2023-05-02T06:36:59;5.80;;;5.40;;
12768;SDS011;6448;48.916;8.990;2023-05-02T06:39:08;6.30;;;5.80;;